Time;durP1;ratioP1;P1;durP2;ratioP2;P2;SDS_P1;SDS_P2;PMS_P1;PMS_P2;Temp;Humidity;BMP_temperature;BMP_pressure;BME280_temperature;BME280_humidity;BME280_pressure;Samples;Min_cycle;Max_cycle;Signal;HPM_P1;HPM_P2
2022/06/18 07:01:34;;;;;;;12.10;5.03;;;25.30;99.90;;;;;;5052579;28;20617;-35
2022/06/18 07:04:01;;;;;;;4.30;3.90;;;25.50;99.90;;;;;;5047183;28;20442;-36
2022/06/18 07:06:27;;;;;;;5.33;3.80;;;25.60;99.90;;;;;;5046862;28;20491;-36
2022/06/18 07:08:54;;;;;;;4.90;4.23;;;25.70;99.70;;;;;;5046966;28;20507;-36
2022/06/18 07:11:20;;;;;;;6.73;4.27;;;25.80;99.40;;;;;;5042689;28;20197;-36
2022/06/18 07:13:45;;;;;;;5.67;4.73;;;25.90;99.10;;;;;;5057396;28;20521;-35
2022/06/18 07:16:13;;;;;;;9.00;4.60;;;26.00;99.40;;;;;;5066949;28;20419;-36
2022/06/18 07:18:40;;;;;;;5.23;4.40;;;26.10;98.50;;;;;;5066334;28;20259;-36
2022/06/18 07:21:10;;;;;;;6.53;4.53;;;26.10;97.70;;;;;;5057793;28;20468;-36
2022/06/18 07:23:35;;;;;;;6.53;4.47;;;26.00;97.30;;;;;;5046689;28;20425;-36
2022/06/18 07:26:01;;;;;;;5.03;4.40;;;26.10;97.60;;;;;;5045151;28;21146;-36
2022/06/18 07:28:27;;;;;;;6.17;4.50;;;26.20;97.30;;;;;;5048725;28;20181;-36
2022/06/18 07:30:53;;;;;;;7.00;4.37;;;26.20;97.40;;;;;;5047108;28;20511;-36
2022/06/18 07:33:22;;;;;;;7.67;4.77;;;26.30;97.10;;;;;;5037392;28;20186;-36
2022/06/18 07:35:48;;;;;;;7.10;4.67;;;26.30;97.40;;;;;;5047498;28;20271;-36
2022/06/18 07:38:14;;;;;;;6.37;4.13;;;26.40;96.50;;;;;;5064053;28;20941;-36
2022/06/18 07:40:44;;;;;;;7.10;5.13;;;26.40;96.10;;;;;;5066614;28;20466;-36
2022/06/18 07:43:21;;;;;;;6.33;5.07;;;26.40;96.40;;;;;;5064936;28;20431;-36
2022/06/18 07:45:47;;;;;;;7.20;4.63;;;26.30;96.20;;;;;;5047114;28;20461;-36
2022/06/18 07:48:13;;;;;;;4.47;3.97;;;26.40;96.60;;;;;;5065544;28;20459;-36
2022/06/18 07:50:43;;;;;;;9.10;4.50;;;26.40;96.10;;;;;;5054792;28;20260;-36
2022/06/18 07:53:18;;;;;;;10.57;5.77;;;26.40;95.80;;;;;;5044807;28;20423;-36
2022/06/18 07:55:44;;;;;;;5.10;4.63;;;26.50;96.50;;;;;;5046487;28;20464;-36
2022/06/18 07:58:10;;;;;;;7.17;4.80;;;26.60;96.40;;;;;;5045612;28;20850;-36
2022/06/18 08:00:39;;;;;;;9.47;4.60;;;26.70;96.40;;;;;;5045987;28;20507;-36
2022/06/18 08:03:10;;;;;;;9.83;5.37;;;26.70;96.20;;;;;;5045874;28;20184;-36
2022/06/18 08:05:35;;;;;;;5.70;4.53;;;26.70;95.80;;;;;;5046209;28;20778;-36
2022/06/18 08:08:01;;;;;;;5.27;4.33;;;26.70;96.10;;;;;;5045402;28;20428;-36
2022/06/18 08:10:27;;;;;;;5.40;4.40;;;26.70;96.50;;;;;;5046011;28;20270;-36
2022/06/18 08:12:54;;;;;;;6.00;4.13;;;26.80;96.30;;;;;;5033175;28;20523;-36
2022/06/18 08:15:19;;;;;;;7.60;4.30;;;26.80;95.90;;;;;;5032557;28;20432;-36
2022/06/18 08:17:45;;;;;;;6.60;4.50;;;26.80;95.90;;;;;;5031785;28;20452;-36
2022/06/18 08:20:12;;;;;;;5.50;4.23;;;26.80;95.80;;;;;;5029116;28;20222;-36
2022/06/18 08:22:43;;;;;;;7.10;4.90;;;26.70;95.90;;;;;;5052574;28;20243;-36
2022/06/18 08:25:11;;;;;;;8.50;5.13;;;26.80;96.20;;;;;;5052444;28;20424;-36
2022/06/18 08:27:37;;;;;;;5.60;4.30;;;26.80;95.70;;;;;;5051838;28;20428;-37
2022/06/18 08:30:04;;;;;;;9.97;4.80;;;26.90;96.20;;;;;;5052134;28;20432;-36
2022/06/18 08:32:30;;;;;;;9.53;4.90;;;26.90;96.20;;;;;;5051122;28;20432;-36
2022/06/18 08:34:56;;;;;;;13.20;5.20;;;27.00;96.20;;;;;;5052172;28;20949;-36
2022/06/18 08:37:22;;;;;;;4.73;4.17;;;27.10;96.20;;;;;;5051768;28;20194;-36
2022/06/18 08:39:48;;;;;;;6.50;4.57;;;27.20;95.70;;;;;;5052140;28;20852;-36
2022/06/18 08:42:32;;;;;;;7.90;4.33;;;27.30;95.70;;;;;;5050908;28;20428;-36
2022/06/18 08:45:15;;;;;;;5.20;4.40;;;27.40;95.70;;;;;;5050717;28;20463;-36
2022/06/18 08:47:50;;;;;;;8.90;4.50;;;27.40;95.20;;;;;;5051610;28;20965;-36
2022/06/18 08:50:35;;;;;;;6.80;4.57;;;27.60;94.70;;;;;;5043581;28;20468;-36
2022/06/18 08:53:19;;;;;;;5.83;4.47;;;27.60;95.40;;;;;;5031770;28;20429;-36
2022/06/18 08:56:10;;;;;;;7.17;4.80;;;27.70;95.20;;;;;;5041323;28;20432;-36
2022/06/18 08:58:53;;;;;;;5.67;4.30;;;27.80;94.80;;;;;;5027666;28;20952;-36
2022/06/18 09:01:31;;;;;;;8.77;4.57;;;27.90;94.60;;;;;;5031401;28;20559;-36
2022/06/18 09:04:18;;;;;;;6.63;4.30;;;28.00;94.50;;;;;;5026148;28;20469;-36
2022/06/18 09:07:07;;;;;;;7.80;4.83;;;28.10;95.00;;;;;;5031124;28;20443;-36
2022/06/18 09:09:42;;;;;;;7.23;5.03;;;28.30;93.80;;;;;;5028839;28;20457;-36
2022/06/18 09:12:17;;;;;;;7.77;4.33;;;28.30;93.80;;;;;;5029814;28;20476;-36
2022/06/18 09:14:51;;;;;;;5.50;4.63;;;28.40;94.00;;;;;;5042808;28;20915;-36
2022/06/18 09:17:23;;;;;;;8.00;4.73;;;28.40;93.80;;;;;;5040301;28;20452;-37
2022/06/18 09:20:02;;;;;;;7.63;4.30;;;28.50;93.50;;;;;;5042961;28;20550;-36
2022/06/18 09:22:30;;;;;;;13.03;5.00;;;28.50;93.50;;;;;;5027079;28;20468;-36
2022/06/18 09:25:04;;;;;;;8.83;4.50;;;28.60;93.80;;;;;;5036980;28;20966;-36
2022/06/18 09:27:42;;;;;;;6.23;4.70;;;28.70;93.50;;;;;;5027092;28;20960;-36
2022/06/18 09:30:19;;;;;;;5.87;4.73;;;28.80;93.30;;;;;;5031313;28;20453;-36
2022/06/18 09:32:51;;;;;;;6.20;4.40;;;28.90;92.50;;;;;;5031959;28;20463;-37
2022/06/18 09:35:33;;;;;;;7.13;4.80;;;29.00;92.80;;;;;;5023294;28;20991;-36
2022/06/18 09:38:18;;;;;;;5.03;4.60;;;29.00;92.20;;;;;;5028285;28;20487;-36
2022/06/18 09:40:50;;;;;;;6.50;4.60;;;29.00;92.50;;;;;;5037169;28;20512;-37
2022/06/18 09:43:45;;;;;;;7.00;4.80;;;29.10;91.90;;;;;;5022544;28;20551;-37
2022/06/18 09:46:24;;;;;;;8.63;5.40;;;29.10;91.90;;;;;;5031145;28;20938;-36
2022/06/18 09:48:50;;;;;;;7.07;4.30;;;29.00;91.70;;;;;;5027896;28;20985;-36
2022/06/18 09:51:30;;;;;;;6.30;5.00;;;29.10;91.90;;;;;;5030093;28;20475;-36
2022/06/18 09:54:03;;;;;;;7.20;4.90;;;29.10;92.00;;;;;;5028413;28;20461;-36
2022/06/18 09:56:43;;;;;;;7.37;4.53;;;29.10;92.30;;;;;;5029382;28;20488;-37
2022/06/18 09:59:33;;;;;;;6.40;4.73;;;29.20;92.80;;;;;;5026027;28;20456;-37
2022/06/18 10:02:00;;;;;;;7.30;4.60;;;29.40;90.80;;;;;;5024866;28;20648;-36
2022/06/18 10:07:17;;;;;;;5.50;4.13;;;29.50;90.50;;;;;;5028288;28;20475;-36
2022/06/18 10:09:51;;;;;;;6.57;4.20;;;29.60;91.10;;;;;;5038181;28;20455;-36
2022/06/18 10:12:44;;;;;;;6.57;4.60;;;29.70;91.80;;;;;;5042909;28;20962;-36
2022/06/18 10:15:13;;;;;;;7.37;4.50;;;29.80;91.10;;;;;;5022920;28;20947;-37
2022/06/18 10:18:02;;;;;;;10.13;5.17;;;29.90;90.50;;;;;;5032993;28;20567;-36
2022/06/18 10:20:41;;;;;;;7.77;5.23;;;29.90;90.90;;;;;;5033927;28;20476;-36
2022/06/18 10:23:32;;;;;;;7.00;4.50;;;30.00;90.70;;;;;;5047522;28;20456;-36
2022/06/18 10:26:26;;;;;;;5.47;4.60;;;30.10;90.70;;;;;;5035236;28;20452;-36
2022/06/18 10:29:01;;;;;;;7.37;4.77;;;30.20;90.50;;;;;;5043913;28;20455;-36
2022/06/18 10:31:49;;;;;;;5.80;4.27;;;30.20;90.90;;;;;;5045471;28;20455;-36
2022/06/18 10:34:39;;;;;;;9.97;4.80;;;30.20;90.10;;;;;;5026939;28;20450;-37
2022/06/18 10:37:27;;;;;;;5.00;3.97;;;30.20;90.40;;;;;;5042252;28;20943;-36
2022/06/18 10:40:20;;;;;;;8.10;4.63;;;30.30;90.00;;;;;;5043107;28;20503;-36
2022/06/18 10:42:54;;;;;;;9.60;4.53;;;30.30;87.10;;;;;;5047065;28;20464;-36
2022/06/18 10:45:39;;;;;;;5.63;4.60;;;30.30;88.90;;;;;;5041580;28;20450;-36
2022/06/18 10:48:15;;;;;;;9.33;4.30;;;30.40;87.80;;;;;;5025453;28;20457;-36
2022/06/18 10:50:47;;;;;;;7.50;4.30;;;30.40;87.30;;;;;;5033550;28;20540;-36
2022/06/18 10:53:15;;;;;;;7.90;4.40;;;30.50;86.80;;;;;;5045406;28;20468;-36
2022/06/18 10:55:42;;;;;;;8.93;4.70;;;30.60;88.00;;;;;;5047288;28;21010;-36
2022/06/18 10:58:15;;;;;;;7.50;4.40;;;30.50;84.80;;;;;;5043777;28;20506;-36
2022/06/18 11:01:04;;;;;;;14.63;4.90;;;30.60;85.70;;;;;;5046304;28;20486;-36
2022/06/18 11:03:32;;;;;;;8.33;4.70;;;30.70;87.60;;;;;;5019669;28;20449;-36
2022/06/18 11:06:03;;;;;;;8.27;4.83;;;30.70;85.40;;;;;;5040402;28;20445;-36
2022/06/18 11:08:32;;;;;;;8.53;4.33;;;30.80;89.20;;;;;;5036994;28;20473;-36
2022/06/18 11:11:03;;;;;;;8.17;4.50;;;30.90;89.20;;;;;;5039179;28;20515;-36
2022/06/18 11:13:35;;;;;;;6.77;4.20;;;30.90;84.20;;;;;;5032998;28;20465;-36
2022/06/18 11:16:22;;;;;;;12.03;4.70;;;30.90;85.00;;;;;;5037229;28;20514;-37
2022/06/18 11:18:54;;;;;;;8.93;4.43;;;31.00;84.40;;;;;;5028802;28;20469;-36
2022/06/18 11:21:31;;;;;;;12.80;4.93;;;31.00;83.80;;;;;;5020801;28;20500;-36
2022/06/18 11:24:33;;;;;;;6.20;4.77;;;31.10;85.00;;;;;;5038535;28;20826;-37
2022/06/18 11:27:03;;;;;;;10.10;4.77;;;31.10;85.50;;;;;;5041677;28;20451;-36
2022/06/18 11:29:37;;;;;;;9.03;4.30;;;31.10;81.90;;;;;;5016546;28;21010;-36
2022/06/18 11:32:10;;;;;;;11.83;5.27;;;31.10;83.60;;;;;;5029507;28;20445;-36
2022/06/18 11:34:40;;;;;;;10.03;4.30;;;31.10;83.40;;;;;;5024314;28;20421;-36
2022/06/18 11:37:24;;;;;;;8.23;4.03;;;31.20;83.90;;;;;;5028136;28;20433;-36
2022/06/18 11:39:57;;;;;;;8.47;4.43;;;31.20;80.30;;;;;;5029254;28;20506;-36
2022/06/18 11:42:34;;;;;;;8.97;4.80;;;31.20;83.60;;;;;;5023647;28;20855;-36
2022/06/18 11:45:25;;;;;;;11.60;4.90;;;31.30;79.40;;;;;;5030087;28;20435;-36
2022/06/18 11:48:21;;;;;;;10.53;5.10;;;31.30;85.00;;;;;;5031919;28;20949;-36
2022/06/18 11:51:00;;;;;;;10.37;4.60;;;31.40;82.00;;;;;;5041263;28;20435;-36
2022/06/18 11:53:40;;;;;;;11.80;4.43;;;31.50;83.60;;;;;;5034052;28;20511;-36
2022/06/18 11:56:23;;;;;;;11.30;4.33;;;31.40;79.10;;;;;;5028488;28;21051;-36
2022/06/18 11:58:55;;;;;;;13.10;4.93;;;31.40;77.60;;;;;;5031507;28;20420;-37
2022/06/18 12:01:31;;;;;;;9.53;4.83;;;31.40;79.30;;;;;;5032449;28;20480;-36
2022/06/18 12:04:13;;;;;;;10.40;4.80;;;31.40;79.70;;;;;;5021322;28;20425;-36
2022/06/18 12:07:01;;;;;;;11.40;4.50;;;31.50;79.20;;;;;;5046076;28;20519;-37
2022/06/18 12:09:28;;;;;;;11.37;4.90;;;31.50;78.10;;;;;;5032847;28;20421;-37
2022/06/18 12:12:09;;;;;;;8.70;4.50;;;31.50;77.60;;;;;;5030220;28;20413;-36
2022/06/18 12:14:50;;;;;;;8.83;4.30;;;31.60;79.00;;;;;;5032787;28;20429;-36
2022/06/18 12:17:32;;;;;;;8.57;4.47;;;31.60;80.00;;;;;;5031754;28;20436;-37
2022/06/18 12:20:19;;;;;;;8.77;4.47;;;31.70;79.10;;;;;;5032835;28;21231;-36
2022/06/18 12:23:01;;;;;;;8.40;5.00;;;31.70;76.70;;;;;;5032692;28;20425;-36
2022/06/18 12:25:36;;;;;;;9.80;4.70;;;31.70;76.70;;;;;;5032794;28;20421;-36
2022/06/18 12:28:10;;;;;;;11.13;4.47;;;31.60;76.30;;;;;;5030891;28;20915;-36
2022/06/18 12:30:51;;;;;;;9.30;4.07;;;31.50;77.00;;;;;;5032477;28;20456;-36
2022/06/18 12:33:23;;;;;;;8.87;4.57;;;31.50;75.80;;;;;;5032327;28;20850;-36
2022/06/18 12:36:08;;;;;;;10.07;5.00;;;31.60;79.60;;;;;;5032329;28;20539;-37
2022/06/18 12:39:11;;;;;;;11.83;4.70;;;31.60;75.00;;;;;;5030220;28;20432;-37
2022/06/18 12:41:45;;;;;;;9.10;4.77;;;31.70;74.80;;;;;;5032337;28;20479;-37
2022/06/18 12:44:27;;;;;;;8.97;4.33;;;31.70;76.00;;;;;;5047660;28;20445;-36
2022/06/18 12:47:22;;;;;;;12.77;4.87;;;31.70;74.80;;;;;;5031532;28;20892;-36
2022/06/18 12:50:07;;;;;;;14.60;5.10;;;31.70;80.20;;;;;;5036399;28;20475;-37
2022/06/18 12:52:46;;;;;;;11.70;5.00;;;31.70;78.80;;;;;;5051891;28;20428;-36
2022/06/18 12:55:33;;;;;;;9.23;4.70;;;31.80;76.00;;;;;;5052054;28;20914;-37
2022/06/18 12:58:08;;;;;;;13.83;4.90;;;31.80;74.60;;;;;;5050945;28;20927;-37
2022/06/18 13:00:47;;;;;;;9.03;4.90;;;31.80;78.80;;;;;;5051753;28;21006;-37
2022/06/18 13:03:24;;;;;;;14.33;4.87;;;31.90;73.80;;;;;;5044335;28;20425;-36
2022/06/18 13:05:58;;;;;;;13.17;4.90;;;31.80;73.90;;;;;;5031827;28;20413;-36
2022/06/18 13:08:34;;;;;;;9.87;4.87;;;31.80;72.90;;;;;;5020148;28;20468;-36
2022/06/18 13:11:10;;;;;;;12.20;4.87;;;31.80;73.10;;;;;;5027489;28;20436;-36
2022/06/18 13:14:20;;;;;;;11.30;5.47;;;31.80;75.50;;;;;;5030853;28;20416;-36
2022/06/18 13:16:49;;;;;;;16.00;5.37;;;31.80;75.70;;;;;;5027748;28;20617;-36
2022/06/18 13:19:28;;;;;;;9.50;5.23;;;31.90;74.40;;;;;;5025935;28;20433;-36
2022/06/18 13:21:54;;;;;;;10.07;5.50;;;31.90;74.30;;;;;;5030813;28;20428;-36
2022/06/18 13:30:07;;;;;;;9.57;5.23;;;32.00;73.70;;;;;;5030951;28;20430;-36
2022/06/18 13:33:02;;;;;;;15.43;5.00;;;32.00;73.40;;;;;;5030891;28;20944;-37
2022/06/18 13:35:48;;;;;;;7.43;4.50;;;31.90;73.00;;;;;;5030882;28;20516;-36
2022/06/18 13:38:39;;;;;;;10.90;4.53;;;32.00;74.00;;;;;;5029827;28;20421;-36
2022/06/18 13:41:11;;;;;;;12.30;5.97;;;32.00;76.00;;;;;;5030730;28;20480;-36
2022/06/18 13:44:01;;;;;;;9.90;5.30;;;32.10;73.40;;;;;;5046262;28;20936;-36
2022/06/18 13:46:42;;;;;;;7.17;4.90;;;32.10;75.50;;;;;;5030885;28;20976;-37
2022/06/18 13:49:14;;;;;;;17.83;6.00;;;32.10;77.60;;;;;;5026557;28;20421;-37
2022/06/18 13:51:41;;;;;;;8.13;4.83;;;32.10;78.50;;;;;;5050471;28;20424;-37
2022/06/18 13:54:13;;;;;;;12.57;5.70;;;32.10;75.40;;;;;;5049522;28;20882;-37
2022/06/18 13:56:55;;;;;;;8.47;5.67;;;32.10;72.70;;;;;;5050213;28;20431;-37
2022/06/18 13:59:21;;;;;;;8.37;5.50;;;32.10;72.20;;;;;;5049201;28;20459;-37
2022/06/18 14:01:51;;;;;;;10.17;5.63;;;32.10;74.90;;;;;;5046133;28;20503;-36
2022/06/18 14:04:39;;;;;;;8.77;5.60;;;32.10;73.40;;;;;;5034321;28;20440;-36
2022/06/18 14:07:14;;;;;;;9.60;5.03;;;32.10;77.50;;;;;;5025842;28;20534;-37
2022/06/18 14:09:50;;;;;;;13.23;5.60;;;32.10;74.60;;;;;;5028332;28;20442;-36
2022/06/18 14:12:33;;;;;;;11.87;5.60;;;32.10;73.10;;;;;;5024604;28;20428;-36
2022/06/18 14:15:26;;;;;;;10.37;5.13;;;32.10;74.20;;;;;;5024481;28;20425;-36
2022/06/18 14:17:56;;;;;;;11.50;5.57;;;32.20;73.60;;;;;;5024977;28;20599;-36
2022/06/18 14:20:29;;;;;;;7.50;5.50;;;32.10;72.90;;;;;;5026370;28;20461;-36
2022/06/18 14:23:04;;;;;;;13.93;5.57;;;32.20;72.90;;;;;;5021712;28;20645;-36
2022/06/18 14:25:43;;;;;;;13.83;6.47;;;32.10;74.90;;;;;;5015457;28;20424;-36
2022/06/18 14:28:20;;;;;;;10.40;5.20;;;32.00;74.30;;;;;;5028318;28;20567;-36
2022/06/18 14:30:54;;;;;;;11.70;6.57;;;31.90;74.90;;;;;;5030020;28;20464;-38
2022/06/18 14:34:02;;;;;;;10.63;5.83;;;31.90;73.60;;;;;;5030316;28;20490;-36
2022/06/18 14:36:38;;;;;;;9.77;5.70;;;31.90;72.60;;;;;;5024876;28;20429;-37
2022/06/18 14:39:26;;;;;;;5.90;4.73;;;31.90;76.10;;;;;;5044325;28;20424;-36
2022/06/18 14:42:10;;;;;;;7.77;5.20;;;31.90;76.20;;;;;;5029939;28;20432;-36
2022/06/18 14:45:04;;;;;;;11.07;5.50;;;32.00;74.60;;;;;;5030025;28;20946;-36
2022/06/18 14:47:48;;;;;;;13.63;5.53;;;32.00;79.20;;;;;;5044560;28;20471;-36
2022/06/18 14:50:16;;;;;;;8.53;5.40;;;32.00;76.50;;;;;;5037845;28;20511;-36
2022/06/18 14:53:19;;;;;;;10.57;5.73;;;32.00;79.00;;;;;;5049679;28;20420;-37
2022/06/18 14:56:14;;;;;;;10.07;6.00;;;32.00;79.30;;;;;;5049654;28;20514;-36
2022/06/18 14:59:19;;;;;;;13.17;6.33;;;32.10;76.10;;;;;;5049327;28;20549;-37
2022/06/18 15:01:51;;;;;;;8.90;5.83;;;32.10;77.20;;;;;;5047559;28;20471;-37
2022/06/18 15:04:23;;;;;;;10.90;5.83;;;32.00;74.80;;;;;;5035706;28;20782;-37
2022/06/18 15:06:49;;;;;;;6.53;5.83;;;32.10;76.80;;;;;;5029164;28;20421;-37
2022/06/18 15:09:28;;;;;;;13.37;6.13;;;32.10;76.70;;;;;;5029739;28;20432;-36
2022/06/18 15:11:57;;;;;;;9.33;6.50;;;32.10;73.80;;;;;;5029803;28;20550;-36
2022/06/18 15:14:26;;;;;;;12.17;5.77;;;32.10;74.70;;;;;;5029457;28;20516;-36
2022/06/18 15:19:43;;;;;;;10.83;6.03;;;32.10;76.80;;;;;;5029658;28;20417;-36
2022/06/18 15:25:31;;;;;;;7.70;5.77;;;32.10;76.60;;;;;;5019159;28;20471;-36
2022/06/18 15:28:01;;;;;;;11.27;6.23;;;32.10;78.90;;;;;;5033111;28;20494;-37
2022/06/18 15:30:38;;;;;;;12.37;5.60;;;32.10;77.60;;;;;;5028130;28;20436;-37
2022/06/18 15:33:14;;;;;;;15.50;6.10;;;32.10;75.70;;;;;;5028909;28;20428;-36
2022/06/18 15:35:43;;;;;;;10.33;5.80;;;32.10;75.70;;;;;;5034780;28;20416;-36
2022/06/18 15:38:31;;;;;;;7.33;5.80;;;32.10;75.60;;;;;;5027237;28;20432;-36
2022/06/18 15:41:08;;;;;;;8.73;6.10;;;32.10;77.60;;;;;;5028749;28;20461;-36
2022/06/18 15:43:48;;;;;;;14.30;6.03;;;32.10;77.90;;;;;;5031046;28;20427;-36
2022/06/18 15:46:32;;;;;;;15.03;6.07;;;32.10;77.20;;;;;;5027507;28;20512;-37
2022/06/18 15:49:03;;;;;;;10.90;6.47;;;32.10;77.10;;;;;;5043642;28;20428;-36
2022/06/18 15:51:45;;;;;;;10.70;6.27;;;32.00;76.90;;;;;;5035161;28;20421;-37
2022/06/18 15:54:24;;;;;;;11.13;6.30;;;32.00;77.90;;;;;;5033077;28;20432;-37
2022/06/18 15:56:56;;;;;;;10.93;6.00;;;32.00;75.60;;;;;;5032556;28;20435;-36
2022/06/18 15:59:25;;;;;;;9.27;6.20;;;32.00;76.70;;;;;;5033002;28;20433;-36
2022/06/18 16:01:53;;;;;;;14.70;6.63;;;32.00;76.40;;;;;;5032125;28;20428;-37
2022/06/18 16:04:19;;;;;;;6.53;5.77;;;31.90;76.00;;;;;;5025121;28;20416;-37
2022/06/18 16:06:46;;;;;;;7.50;5.77;;;31.80;78.60;;;;;;5044009;28;20417;-36
2022/06/18 16:09:18;;;;;;;7.40;5.57;;;31.80;78.60;;;;;;5032798;28;20421;-37
2022/06/18 16:11:45;;;;;;;15.57;6.53;;;31.80;77.30;;;;;;5032848;28;20413;-36
2022/06/18 16:14:11;;;;;;;16.27;6.40;;;31.80;76.00;;;;;;5032919;28;20942;-36
2022/06/18 16:17:04;;;;;;;11.30;6.50;;;31.70;76.80;;;;;;5032316;28;20421;-37
2022/06/18 16:19:41;;;;;;;12.00;5.83;;;31.70;77.90;;;;;;5032474;28;20202;-37
2022/06/18 16:22:28;;;;;;;7.80;5.97;;;31.70;78.10;;;;;;5032575;28;20421;-36
2022/06/18 16:24:57;;;;;;;13.03;6.43;;;31.70;78.80;;;;;;5032761;28;20512;-37
2022/06/18 16:27:33;;;;;;;8.27;6.13;;;31.60;77.90;;;;;;5031445;28;20432;-37
2022/06/18 16:30:12;;;;;;;8.73;6.03;;;31.60;77.90;;;;;;5032509;28;20487;-37
2022/06/18 16:32:46;;;;;;;15.53;7.03;;;31.60;77.30;;;;;;5032023;28;20443;-36
2022/06/18 16:35:12;;;;;;;10.23;6.20;;;31.60;78.80;;;;;;5032568;28;20905;-37
2022/06/18 16:37:39;;;;;;;8.20;6.00;;;31.60;79.10;;;;;;5031564;28;20449;-37
2022/06/18 16:40:11;;;;;;;6.90;5.90;;;31.60;78.50;;;;;;5030963;28;20661;-37
2022/06/18 16:42:45;;;;;;;6.80;4.90;;;31.60;80.50;;;;;;5032252;28;20460;-36
2022/06/18 16:45:17;;;;;;;17.10;6.53;;;31.50;81.40;;;;;;5032436;28;20427;-36
2022/06/18 16:47:59;;;;;;;8.47;6.10;;;31.50;79.90;;;;;;5031523;28;20421;-36
2022/06/18 16:50:27;;;;;;;9.80;6.90;;;31.50;80.20;;;;;;5040255;28;20427;-37
2022/06/18 16:52:59;;;;;;;11.73;6.20;;;31.50;76.20;;;;;;5030593;28;20440;-36
2022/06/18 16:55:32;;;;;;;14.70;6.53;;;31.50;76.20;;;;;;5030981;28;20437;-37
2022/06/18 16:57:58;;;;;;;9.33;6.10;;;31.40;78.00;;;;;;5031289;28;20516;-37
2022/06/18 17:00:27;;;;;;;9.87;6.10;;;31.40;79.50;;;;;;5031937;28;21072;-36
2022/06/18 17:02:53;;;;;;;13.70;7.13;;;31.40;80.30;;;;;;5028088;28;20432;-36
2022/06/18 17:05:19;;;;;;;14.83;10.40;;;31.30;79.20;;;;;;5022843;28;20428;-37
2022/06/18 17:07:46;;;;;;;15.23;10.53;;;31.30;80.30;;;;;;5031074;28;20491;-36
2022/06/18 17:10:24;;;;;;;12.27;8.80;;;31.30;82.20;;;;;;5031896;28;20846;-37
2022/06/18 17:12:51;;;;;;;10.03;7.50;;;31.20;81.80;;;;;;5031772;28;20507;-36
2022/06/18 17:15:18;;;;;;;9.93;7.00;;;31.20;82.50;;;;;;5031306;28;20433;-36
2022/06/18 17:17:44;;;;;;;8.60;6.40;;;31.20;80.80;;;;;;5029705;28;20759;-37
2022/06/18 17:20:15;;;;;;;13.57;6.77;;;31.20;80.40;;;;;;5031607;28;20469;-38
2022/06/18 17:22:42;;;;;;;9.00;6.40;;;31.20;78.90;;;;;;5031523;28;20460;-37
2022/06/18 17:33:21;;;;;;;9.70;7.30;;;30.90;81.80;;;;;;5031874;28;20449;-36
2022/06/18 17:35:50;;;;;;;10.57;7.37;;;30.80;81.70;;;;;;5033413;28;20440;-36
2022/06/18 17:38:18;;;;;;;13.13;7.43;;;30.70;82.40;;;;;;5050122;28;20718;-37
2022/06/18 17:40:46;;;;;;;10.03;7.07;;;30.70;83.70;;;;;;5051138;28;21010;-36
2022/06/18 17:43:13;;;;;;;17.10;8.30;;;30.60;83.80;;;;;;5049711;28;20799;-36
2022/06/18 17:45:40;;;;;;;14.43;8.10;;;30.60;84.10;;;;;;5050253;28;20455;-36
2022/06/18 17:48:14;;;;;;;15.13;7.63;;;30.50;85.20;;;;;;5050211;28;20439;-36
2022/06/18 17:50:42;;;;;;;12.60;8.53;;;30.40;85.30;;;;;;5039572;28;20475;-36
2022/06/18 17:53:09;;;;;;;9.60;8.17;;;30.40;86.20;;;;;;5030909;28;20429;-36
2022/06/18 17:55:35;;;;;;;10.63;7.60;;;30.30;87.40;;;;;;5030952;28;20502;-36
2022/06/18 17:58:01;;;;;;;13.90;8.03;;;30.20;87.70;;;;;;5030297;28;20460;-36
2022/06/18 18:00:27;;;;;;;10.60;8.30;;;30.20;89.00;;;;;;5030597;28;20222;-36
2022/06/18 18:02:52;;;;;;;9.93;8.07;;;30.20;88.00;;;;;;5027503;28;20201;-37
2022/06/18 18:05:18;;;;;;;11.93;8.57;;;30.20;88.30;;;;;;5021866;28;20715;-36
2022/06/18 18:07:44;;;;;;;12.33;8.47;;;30.10;89.90;;;;;;5029879;28;20553;-36
2022/06/18 18:10:11;;;;;;;11.90;9.00;;;30.00;89.70;;;;;;5029343;28;20435;-36
2022/06/18 18:12:38;;;;;;;16.33;8.40;;;30.00;90.20;;;;;;5029301;28;20213;-36
2022/06/18 18:15:13;;;;;;;12.60;8.57;;;29.80;90.50;;;;;;5029231;28;20425;-36
2022/06/18 18:17:41;;;;;;;12.57;8.70;;;29.80;90.80;;;;;;5029774;28;20785;-36
2022/06/18 18:20:08;;;;;;;9.73;7.67;;;29.60;91.20;;;;;;5030110;28;20931;-37
2022/06/18 18:22:34;;;;;;;9.47;8.40;;;29.60;91.50;;;;;;5030527;28;20567;-37
2022/06/18 18:24:59;;;;;;;10.20;7.70;;;29.60;91.30;;;;;;5030355;28;20432;-36
2022/06/18 18:27:27;;;;;;;9.23;8.20;;;29.50;91.20;;;;;;5029772;28;20827;-37
2022/06/18 18:29:54;;;;;;;10.93;8.30;;;29.50;91.20;;;;;;5030353;28;20538;-37
2022/06/18 18:32:22;;;;;;;13.47;8.37;;;29.40;91.30;;;;;;5029961;28;20982;-37
2022/06/18 18:34:48;;;;;;;14.03;7.83;;;29.30;92.00;;;;;;5028866;28;20433;-37
2022/06/18 18:37:14;;;;;;;14.97;8.23;;;29.30;92.20;;;;;;5029566;28;20900;-36
2022/06/18 18:39:39;;;;;;;12.03;8.20;;;29.20;92.20;;;;;;5030085;28;20433;-36
2022/06/18 18:42:09;;;;;;;15.00;9.50;;;29.20;92.50;;;;;;5020208;28;20244;-36
2022/06/18 18:44:36;;;;;;;12.33;8.00;;;29.10;92.80;;;;;;5023753;28;20195;-36
2022/06/18 18:47:03;;;;;;;9.73;8.33;;;29.00;92.90;;;;;;5032046;28;20759;-36
2022/06/18 18:49:28;;;;;;;12.90;8.43;;;28.90;93.00;;;;;;5048114;28;20427;-37
2022/06/18 18:51:54;;;;;;;11.83;8.80;;;28.80;93.00;;;;;;5029935;28;20430;-36
2022/06/18 18:54:20;;;;;;;11.63;8.20;;;28.80;93.30;;;;;;5020994;28;20214;-36
2022/06/18 18:56:46;;;;;;;12.37;8.67;;;28.80;93.30;;;;;;5017756;28;20233;-36
2022/06/18 18:59:11;;;;;;;9.20;8.27;;;28.70;93.60;;;;;;5029863;28;20186;-37
2022/06/18 19:01:38;;;;;;;12.50;8.53;;;28.60;93.70;;;;;;5017602;28;20217;-36
2022/06/18 19:04:04;;;;;;;11.93;8.60;;;28.60;94.20;;;;;;5024024;28;20448;-36
2022/06/18 19:06:30;;;;;;;9.87;7.80;;;28.50;94.20;;;;;;5029666;28;20421;-37
2022/06/18 19:08:56;;;;;;;9.17;8.27;;;28.40;94.60;;;;;;5031004;28;20450;-36
2022/06/18 19:11:22;;;;;;;9.43;8.50;;;28.40;94.20;;;;;;5049635;28;20428;-36
2022/06/18 19:13:48;;;;;;;15.07;8.93;;;28.40;94.60;;;;;;5026484;28;20191;-37
2022/06/18 19:16:14;;;;;;;13.57;9.30;;;28.30;94.80;;;;;;5024924;28;20436;-36
2022/06/18 19:18:42;;;;;;;11.13;8.30;;;28.30;94.90;;;;;;5044794;28;20181;-36
2022/06/18 19:21:19;;;;;;;15.37;9.07;;;28.20;95.00;;;;;;5035076;28;20516;-36
2022/06/18 19:23:46;;;;;;;12.90;9.47;;;28.10;95.30;;;;;;5033212;28;20484;-37
2022/06/18 19:26:14;;;;;;;14.40;9.50;;;28.00;95.40;;;;;;5033089;28;20500;-36
2022/06/18 19:28:49;;;;;;;8.73;7.83;;;28.00;95.40;;;;;;5032841;28;21113;-37
2022/06/18 19:31:15;;;;;;;9.87;8.83;;;27.90;95.60;;;;;;5033427;28;20539;-36
2022/06/18 19:33:41;;;;;;;14.00;8.40;;;27.80;95.90;;;;;;5041639;28;20463;-36
2022/06/18 19:36:09;;;;;;;14.17;9.30;;;27.80;96.20;;;;;;5034838;28;20468;-36
2022/06/18 19:38:36;;;;;;;12.70;9.03;;;27.80;96.40;;;;;;5020290;28;20269;-36
2022/06/18 19:41:03;;;;;;;16.20;9.30;;;27.70;96.40;;;;;;5033698;28;20488;-36
2022/06/18 19:43:29;;;;;;;11.10;8.77;;;27.60;96.70;;;;;;5042331;28;20820;-36
2022/06/18 19:45:57;;;;;;;10.40;9.30;;;27.60;97.00;;;;;;5014388;28;20457;-36
2022/06/18 19:48:24;;;;;;;14.10;8.30;;;27.60;97.20;;;;;;5020207;28;20293;-36
2022/06/18 19:50:50;;;;;;;15.20;8.80;;;27.50;97.40;;;;;;5034450;28;20874;-36
2022/06/18 19:53:17;;;;;;;14.50;8.70;;;27.50;97.90;;;;;;5040241;28;20481;-36
2022/06/18 19:55:43;;;;;;;13.93;9.13;;;27.40;98.70;;;;;;5032657;28;20215;-36
2022/06/18 19:58:09;;;;;;;9.87;9.00;;;27.30;98.60;;;;;;5028314;28;20512;-37
2022/06/18 20:00:35;;;;;;;15.03;9.20;;;27.30;98.90;;;;;;5029900;28;20472;-36
2022/06/18 20:03:03;;;;;;;12.53;9.10;;;27.20;99.10;;;;;;5028283;28;20214;-36
2022/06/18 20:05:29;;;;;;;12.23;9.03;;;27.20;99.40;;;;;;5039946;28;20475;-36
2022/06/18 20:07:56;;;;;;;12.03;9.07;;;27.10;99.70;;;;;;5035750;28;20487;-36
2022/06/18 20:10:22;;;;;;;12.90;9.70;;;27.00;99.90;;;;;;5038519;28;20217;-36
2022/06/18 20:12:51;;;;;;;11.77;9.60;;;27.00;99.90;;;;;;5043550;28;20492;-37
2022/06/18 20:15:19;;;;;;;9.47;8.50;;;26.90;99.90;;;;;;5043568;28;20954;-36
2022/06/18 20:17:44;;;;;;;10.40;9.30;;;26.90;99.90;;;;;;5030585;28;21015;-36
2022/06/18 20:20:11;;;;;;;13.40;9.60;;;26.80;99.90;;;;;;5033931;28;20516;-36
2022/06/18 20:22:37;;;;;;;11.40;9.57;;;26.70;99.90;;;;;;5037480;28;20309;-36
2022/06/18 20:25:05;;;;;;;10.43;8.73;;;26.60;99.90;;;;;;5036833;28;20834;-36
2022/06/18 20:27:31;;;;;;;9.47;8.40;;;26.60;99.90;;;;;;5045026;28;20445;-37
2022/06/18 20:29:58;;;;;;;12.20;9.00;;;26.60;99.90;;;;;;5032098;28;20440;-37
2022/06/18 20:32:24;;;;;;;9.67;8.50;;;26.60;99.90;;;;;;5048347;28;20448;-36
2022/06/18 20:34:51;;;;;;;12.30;8.90;;;26.60;99.90;;;;;;5030570;28;20985;-36
2022/06/18 20:37:17;;;;;;;12.40;9.80;;;26.60;99.90;;;;;;5036588;28;20531;-37
2022/06/18 20:39:43;;;;;;;10.80;8.50;;;26.60;99.90;;;;;;5043344;28;20561;-36